createdAt,value
2022-08-25T00:01:55.044Z,21.37
2022-08-25T00:04:24.161Z,21.31
2022-08-25T00:06:51.967Z,21.28
2022-08-25T00:09:22.837Z,21.18
2022-08-25T00:11:53.963Z,21.15
2022-08-25T00:14:24.249Z,21.28
2022-08-25T00:16:52.111Z,21.08
2022-08-25T00:19:29.277Z,21.02
2022-08-25T00:21:57.067Z,21.13
2022-08-25T00:24:25.280Z,21.37
2022-08-25T00:26:55.026Z,21.47
2022-08-25T00:29:23.967Z,21.43
2022-08-25T00:31:51.498Z,21.19
2022-08-25T00:34:22.284Z,21.19
2022-08-25T00:36:49.909Z,21.15
2022-08-25T00:39:18.050Z,21.11
2022-08-25T00:41:45.515Z,21.20
2022-08-25T00:44:13.936Z,21.20
2022-08-25T00:46:51.316Z,21.16
2022-08-25T00:49:42.548Z,21.10
2022-08-25T00:52:16.812Z,21.18
2022-08-25T00:55:09.457Z,21.22
2022-08-25T00:57:42.069Z,21.17
2022-08-25T01:00:20.865Z,21.13
2022-08-25T01:02:48.526Z,20.99
2022-08-25T01:05:17.720Z,21.18
2022-08-25T01:07:45.698Z,21.13
2022-08-25T01:10:13.722Z,21.15
2022-08-25T01:12:41.391Z,21.20
2022-08-25T01:15:11.119Z,21.18
2022-08-25T01:17:52.788Z,21.12
2022-08-25T01:20:24.610Z,21.13
2022-08-25T01:22:57.476Z,21.07
2022-08-25T01:25:28.366Z,21.18
2022-08-25T01:27:55.898Z,21.19
2022-08-25T01:30:24.108Z,21.12
2022-08-25T01:32:52.104Z,21.11
2022-08-25T01:35:19.876Z,21.01
2022-08-25T01:37:47.337Z,21.01
2022-08-25T01:40:15.125Z,20.98
2022-08-25T01:43:08.075Z,21.00
2022-08-25T01:45:36.444Z,20.97
2022-08-25T01:48:04.882Z,21.03
2022-08-25T01:50:32.915Z,21.29
2022-08-25T01:53:07.794Z,21.20
2022-08-25T01:55:36.874Z,21.10
2022-08-25T01:58:04.671Z,21.08
2022-08-25T02:00:32.762Z,21.09
2022-08-25T02:03:00.846Z,21.06
2022-08-25T02:05:28.274Z,20.97
2022-08-25T02:07:56.358Z,21.26
2022-08-25T02:10:26.974Z,21.05
2022-08-25T02:12:57.449Z,21.10
2022-08-25T02:15:24.917Z,20.92
2022-08-25T02:17:52.524Z,21.00
2022-08-25T02:20:20.065Z,21.11
2022-08-25T02:22:56.657Z,20.98
2022-08-25T02:25:25.471Z,20.98
2022-08-25T02:27:52.828Z,20.91
2022-08-25T02:30:20.407Z,21.03
2022-08-25T02:32:48.295Z,21.01
2022-08-25T02:35:16.848Z,20.94
2022-08-25T02:37:44.506Z,20.82
2022-08-25T02:40:12.615Z,20.75
2022-08-25T02:42:42.727Z,21.01
2022-08-25T02:45:10.450Z,21.45
2022-08-25T02:47:38.050Z,21.49
2022-08-25T02:50:06.299Z,21.39
2022-08-25T02:52:33.757Z,21.30
2022-08-25T02:55:03.884Z,21.15
2022-08-25T02:57:31.774Z,21.21
2022-08-25T02:59:59.376Z,21.17
2022-08-25T03:02:27.880Z,21.24
2022-08-25T03:04:55.359Z,21.35
2022-08-25T03:07:22.701Z,21.22
2022-08-25T03:09:52.500Z,21.01
2022-08-25T03:12:19.825Z,20.97
2022-08-25T03:14:47.154Z,21.01
2022-08-25T03:17:15.326Z,20.94
2022-08-25T03:19:42.626Z,20.78
2022-08-25T03:22:10.133Z,20.95
2022-08-25T03:24:37.812Z,20.93
2022-08-25T03:27:05.477Z,21.05
2022-08-25T03:29:33.737Z,20.92
2022-08-25T03:32:01.816Z,20.90
2022-08-25T03:34:30.459Z,20.59
2022-08-25T03:36:59.532Z,20.72
2022-08-25T03:39:27.189Z,20.82
2022-08-25T03:41:54.632Z,20.87
2022-08-25T03:44:22.731Z,20.71
2022-08-25T03:46:51.677Z,20.86
2022-08-25T03:49:23.183Z,20.94
2022-08-25T03:51:52.889Z,20.87
2022-08-25T03:54:23.350Z,20.85
2022-08-25T03:56:51.453Z,20.81
2022-08-25T03:59:19.088Z,20.89
2022-08-25T04:01:50.223Z,20.91
2022-08-25T04:04:20.711Z,20.69
2022-08-25T04:06:48.002Z,20.81
2022-08-25T04:09:15.379Z,20.88
2022-08-25T04:11:43.171Z,20.81
2022-08-25T04:14:13.001Z,20.86
2022-08-25T04:16:45.048Z,20.88
2022-08-25T04:19:13.505Z,20.87
2022-08-25T04:21:41.199Z,20.87
2022-08-25T04:24:10.717Z,20.90
2022-08-25T04:26:41.193Z,20.66
2022-08-25T04:29:09.501Z,20.72
2022-08-25T04:31:39.514Z,20.79
2022-08-25T04:34:13.429Z,20.77
2022-08-25T04:36:55.181Z,20.86
2022-08-25T04:39:24.906Z,20.87
2022-08-25T04:41:52.392Z,20.95
2022-08-25T04:44:20.130Z,21.03
2022-08-25T04:46:47.598Z,21.12
2022-08-25T04:49:15.347Z,21.21
2022-08-25T04:51:43.126Z,21.22
2022-08-25T04:54:15.373Z,21.25
2022-08-25T04:56:43.490Z,21.18
2022-08-25T04:59:13.984Z,21.28
2022-08-25T05:01:41.796Z,21.24
2022-08-25T05:04:14.699Z,21.38
2022-08-25T05:06:56.241Z,21.43
2022-08-25T05:09:27.579Z,21.38
2022-08-25T05:11:55.440Z,21.45
2022-08-25T05:14:26.170Z,21.55
2022-08-25T05:16:57.317Z,21.65
2022-08-25T05:19:24.887Z,21.57
2022-08-25T05:21:52.492Z,21.65
2022-08-25T05:24:20.715Z,21.75
2022-08-25T05:26:48.104Z,21.85
2022-08-25T05:29:15.434Z,21.90
2022-08-25T05:31:50.413Z,22.01
2022-08-25T05:34:19.068Z,21.98
2022-08-25T05:36:47.661Z,22.03
2022-08-25T05:39:15.118Z,22.05
2022-08-25T05:41:42.447Z,22.11
2022-08-25T05:44:10.088Z,22.20
2022-08-25T05:46:37.617Z,22.23
2022-08-25T05:49:05.166Z,22.25
2022-08-25T05:51:32.966Z,22.40
2022-08-25T05:54:00.433Z,22.68
2022-08-25T05:56:30.219Z,22.57
2022-08-25T05:58:57.819Z,22.58
2022-08-25T06:01:28.021Z,22.73
2022-08-25T06:03:55.593Z,22.80
2022-08-25T06:06:24.512Z,22.85
2022-08-25T06:08:52.136Z,23.04
2022-08-25T06:11:20.193Z,23.19
2022-08-25T06:13:47.553Z,23.35
2022-08-25T06:16:15.191Z,23.38
2022-08-25T06:18:45.186Z,23.34
2022-08-25T06:21:18.466Z,23.48
2022-08-25T06:23:46.318Z,23.61
2022-08-25T06:26:20.762Z,23.71
2022-08-25T06:32:17.011Z,23.85
2022-08-25T06:35:06.452Z,24.00
2022-08-25T06:37:54.012Z,24.12
2022-08-25T06:40:41.887Z,24.13
2022-08-25T06:43:29.431Z,24.16
2022-08-25T06:46:20.535Z,24.24
2022-08-25T06:49:08.345Z,24.36
2022-08-25T06:51:56.556Z,24.40
2022-08-25T06:54:47.278Z,24.51
2022-08-25T06:57:37.112Z,24.61
2022-08-25T07:00:30.293Z,24.68
2022-08-25T07:03:25.033Z,24.85
2022-08-25T07:06:17.225Z,24.90
2022-08-25T07:09:08.326Z,25.07
2022-08-25T07:11:55.871Z,25.16
2022-08-25T07:14:58.071Z,25.27
2022-08-25T07:17:52.296Z,25.28
2022-08-25T07:20:40.621Z,25.40
2022-08-25T07:23:28.532Z,25.50
2022-08-25T07:26:37.616Z,25.60
2022-08-25T07:29:32.204Z,25.70
2022-08-25T07:32:20.833Z,25.84
2022-08-25T07:35:09.417Z,25.96
2022-08-25T07:37:59.291Z,26.05
2022-08-25T07:40:47.140Z,26.31
2022-08-25T07:43:41.352Z,26.27
2022-08-25T07:46:29.116Z,26.48
2022-08-25T07:49:17.882Z,26.50
2022-08-25T07:52:10.908Z,26.57
2022-08-25T07:54:58.776Z,26.61
2022-08-25T07:57:46.370Z,26.85
2022-08-25T08:00:40.736Z,26.97
2022-08-25T08:03:45.233Z,26.95
2022-08-25T08:06:39.303Z,27.10
2022-08-25T08:09:27.150Z,27.02
2022-08-25T08:12:15.208Z,27.29
2022-08-25T08:15:03.937Z,27.28
2022-08-25T08:17:59.498Z,27.35
2022-08-25T08:20:48.322Z,27.37
2022-08-25T08:23:35.851Z,27.65
2022-08-25T08:26:36.257Z,27.57
2022-08-25T08:29:29.602Z,27.74
2022-08-25T08:32:19.580Z,27.81
2022-08-25T08:35:07.547Z,27.86
2022-08-25T08:37:55.806Z,27.84
2022-08-25T08:41:06.245Z,27.80
2022-08-25T08:44:07.236Z,27.92
2022-08-25T08:47:32.036Z,27.81
2022-08-25T08:50:35.042Z,27.77
2022-08-25T08:53:27.650Z,27.67
2022-08-25T08:56:45.173Z,27.90
2022-08-25T08:59:48.680Z,27.87
2022-08-25T09:02:51.391Z,28.25
2022-08-25T09:05:51.238Z,28.13
2022-08-25T09:08:44.485Z,28.08
2022-08-25T09:12:09.682Z,28.44
2022-08-25T09:15:24.485Z,28.51
2022-08-25T09:18:26.985Z,28.83
2022-08-25T09:21:41.416Z,28.89
2022-08-25T09:24:34.092Z,28.65
2022-08-25T09:27:44.993Z,29.16
2022-08-25T09:30:45.775Z,29.39
2022-08-25T09:33:35.579Z,29.15
2022-08-25T09:36:24.351Z,29.59
2022-08-25T09:39:12.937Z,29.40
2022-08-25T09:42:01.055Z,29.75
2022-08-25T09:44:49.205Z,29.97
2022-08-25T09:47:44.467Z,30.19
2022-08-25T09:50:35.011Z,30.10
2022-08-25T09:53:22.894Z,30.07
2022-08-25T09:56:11.556Z,29.92
2022-08-25T09:59:21.219Z,30.45
2022-08-25T10:02:29.458Z,30.51
2022-08-25T10:05:26.472Z,30.73
2022-08-25T10:08:28.681Z,30.95
2022-08-25T10:11:38.180Z,30.82
2022-08-25T10:14:25.940Z,30.92
2022-08-25T10:17:15.948Z,30.50
2022-08-25T10:20:09.681Z,30.57
2022-08-25T10:23:12.002Z,30.75
2022-08-25T10:26:08.963Z,30.80
2022-08-25T10:29:35.191Z,30.84
2022-08-25T10:32:31.370Z,31.36
2022-08-25T10:35:27.870Z,31.56
2022-08-25T10:38:28.734Z,31.19
2022-08-25T10:41:23.867Z,31.60
2022-08-25T10:44:39.813Z,31.98
2022-08-25T10:47:39.526Z,32.11
2022-08-25T10:51:00.533Z,32.28
2022-08-25T10:54:15.063Z,32.08
2022-08-25T10:57:12.170Z,32.41
2022-08-25T11:00:11.692Z,32.20
2022-08-25T11:03:14.957Z,32.08
2022-08-25T11:06:10.835Z,32.27
2022-08-25T11:09:01.210Z,32.31
2022-08-25T11:11:54.023Z,32.60
2022-08-25T11:14:57.198Z,32.78
2022-08-25T11:17:57.204Z,32.95
2022-08-25T11:21:20.112Z,33.17
2022-08-25T11:24:33.070Z,33.19
2022-08-25T11:27:37.422Z,33.42
2022-08-25T11:30:26.564Z,33.54
2022-08-25T11:33:15.122Z,33.79
2022-08-25T11:36:06.852Z,33.95
2022-08-25T12:04:44.406Z,34.10
2022-08-25T12:07:24.546Z,34.48
2022-08-25T12:09:52.215Z,34.34
2022-08-25T12:12:31.575Z,34.10
2022-08-25T12:15:17.302Z,34.50
2022-08-25T12:17:45.580Z,34.29
2022-08-25T12:20:14.932Z,33.69
2022-08-25T12:22:43.662Z,34.18
2022-08-25T12:25:31.123Z,33.86
2022-08-25T12:28:09.190Z,34.15
2022-08-25T12:30:50.796Z,34.04
2022-08-25T12:33:40.267Z,34.24
2022-08-25T12:36:11.308Z,34.41
2022-08-25T12:38:51.811Z,34.86
2022-08-25T12:41:22.380Z,35.25
2022-08-25T12:43:54.591Z,34.54
2022-08-25T12:46:23.415Z,34.97
2022-08-25T12:49:29.249Z,35.13
2022-08-25T12:52:02.617Z,34.59
2022-08-25T12:54:52.391Z,34.16
2022-08-25T12:57:25.118Z,34.53
2022-08-25T12:59:59.977Z,34.64
2022-08-25T13:02:52.105Z,34.83
2022-08-25T13:05:25.921Z,34.16
2022-08-25T13:08:15.367Z,33.61
2022-08-25T13:10:58.572Z,33.82
2022-08-25T13:13:37.967Z,33.41
2022-08-25T13:16:09.653Z,33.84
2022-08-25T13:18:38.424Z,33.16
2022-08-25T13:21:28.050Z,33.22
2022-08-25T13:24:04.611Z,32.98
2022-08-25T13:26:37.948Z,32.92
2022-08-25T13:29:27.235Z,33.03
2022-08-25T13:32:09.181Z,33.52
2022-08-25T13:34:42.547Z,33.96
2022-08-25T13:37:19.872Z,34.13
2022-08-25T13:39:58.694Z,34.18
2022-08-25T13:42:28.641Z,34.32
2022-08-25T13:44:56.516Z,34.55
2022-08-25T13:47:43.655Z,34.52
2022-08-25T13:50:27.232Z,34.60
2022-08-25T13:53:16.334Z,34.42
2022-08-25T13:55:57.319Z,34.87
2022-08-25T13:58:45.192Z,34.97
2022-08-25T14:01:23.672Z,35.06
2022-08-25T14:04:39.943Z,34.75
2022-08-25T14:07:20.405Z,34.14
2022-08-25T14:09:59.892Z,34.58
2022-08-25T14:12:34.072Z,35.15
2022-08-25T14:15:27.776Z,35.02
2022-08-25T14:18:15.359Z,34.98
2022-08-25T14:20:46.433Z,35.05
2022-08-25T14:23:18.884Z,34.34
2022-08-25T14:25:48.952Z,33.89
2022-08-25T14:28:20.372Z,33.86
2022-08-25T14:30:51.834Z,33.03
2022-08-25T14:33:22.261Z,33.73
2022-08-25T14:35:52.773Z,33.55
2022-08-25T14:38:21.810Z,33.32
2022-08-25T14:40:49.670Z,33.56
2022-08-25T14:43:20.904Z,33.47
2022-08-25T14:45:52.013Z,33.71
2022-08-25T14:48:44.492Z,33.84
2022-08-25T14:51:33.162Z,33.94
2022-08-25T14:54:24.421Z,34.12
2022-08-25T14:57:13.382Z,34.15
2022-08-25T15:00:01.721Z,33.79
2022-08-25T15:02:50.611Z,33.68
2022-08-25T15:05:25.476Z,33.77
2022-08-25T15:07:54.411Z,34.43
2022-08-25T15:10:22.671Z,34.30
2022-08-25T15:12:53.906Z,34.76
2022-08-25T15:15:22.481Z,34.72
2022-08-25T15:17:50.506Z,34.75
2022-08-25T15:20:18.611Z,34.57
2022-08-25T15:22:46.889Z,34.61
2022-08-25T15:25:16.642Z,34.66
2022-08-25T15:27:45.059Z,34.81
2022-08-25T15:30:14.544Z,34.33
2022-08-25T15:32:43.121Z,34.32
2022-08-25T15:35:15.299Z,34.31
2022-08-25T15:37:43.359Z,33.90
2022-08-25T15:40:12.096Z,33.66
2022-08-25T15:42:42.770Z,33.60
2022-08-25T15:45:16.196Z,33.56
2022-08-25T15:47:45.889Z,33.67
2022-08-25T15:50:16.496Z,33.59
2022-08-25T15:52:45.994Z,33.16
2022-08-25T15:55:17.256Z,33.33
2022-08-25T15:57:44.967Z,33.04
2022-08-25T16:00:13.561Z,32.95
2022-08-25T16:02:44.533Z,33.09
2022-08-25T16:05:16.367Z,32.89
2022-08-25T16:07:44.721Z,32.81
2022-08-25T16:10:13.484Z,32.87
2022-08-25T16:12:42.766Z,32.55
2022-08-25T16:15:12.256Z,32.63
2022-08-25T16:17:40.772Z,32.48
2022-08-25T16:20:16.107Z,32.35
2022-08-25T16:22:43.385Z,32.22
2022-08-25T16:25:11.973Z,32.29
2022-08-25T16:27:39.545Z,32.24
2022-08-25T16:30:08.795Z,32.15
2022-08-25T16:32:36.617Z,32.04
2022-08-25T16:35:05.820Z,31.87
2022-08-25T16:37:38.855Z,31.90
2022-08-25T16:40:09.368Z,31.63
2022-08-25T16:42:38.192Z,31.57
2022-08-25T16:45:06.567Z,31.60
2022-08-25T16:47:37.671Z,31.37
2022-08-25T16:50:07.871Z,31.27
2022-08-25T16:52:39.142Z,31.21
2022-08-25T16:55:08.780Z,31.09
2022-08-25T16:57:36.139Z,31.00
2022-08-25T17:00:06.063Z,30.99
2022-08-25T17:02:34.133Z,30.86
2022-08-25T17:05:02.106Z,30.85
2022-08-25T17:07:29.488Z,30.79
2022-08-25T17:09:59.561Z,30.76
2022-08-25T17:12:27.533Z,30.67
2022-08-25T17:14:54.892Z,30.19
2022-08-25T17:17:26.971Z,30.22
2022-08-25T17:19:54.835Z,30.19
2022-08-25T17:22:22.896Z,30.09
2022-08-25T17:24:53.433Z,29.99
2022-08-25T17:27:30.615Z,29.91
2022-08-25T17:29:58.376Z,29.90
2022-08-25T17:32:28.726Z,29.79
2022-08-25T17:34:58.353Z,29.60
2022-08-25T17:37:25.906Z,29.59
2022-08-25T17:40:02.570Z,29.54
2022-08-25T17:42:31.318Z,29.38
2022-08-25T17:44:58.668Z,29.25
2022-08-25T17:47:27.531Z,29.15
2022-08-25T17:49:55.149Z,29.08
2022-08-25T17:52:25.628Z,28.84
2022-08-25T17:54:53.006Z,28.80
2022-08-25T17:57:21.744Z,28.78
2022-08-25T17:59:49.075Z,28.72
2022-08-25T18:02:16.440Z,28.70
2022-08-25T18:04:44.778Z,28.57
2022-08-25T18:07:12.261Z,28.63
2022-08-25T18:09:39.665Z,28.61
2022-08-25T18:12:07.491Z,28.60
2022-08-25T18:14:37.719Z,28.52
2022-08-25T18:17:05.652Z,28.48
2022-08-25T18:19:33.959Z,28.48
2022-08-25T18:22:01.507Z,28.40
2022-08-25T18:24:29.039Z,28.48
2022-08-25T18:26:56.635Z,28.48
2022-08-25T18:29:42.943Z,28.34
2022-08-25T18:32:30.801Z,28.35
2022-08-25T18:35:21.348Z,28.30
2022-08-25T18:38:09.629Z,28.25
2022-08-25T18:40:37.305Z,28.03
2022-08-25T18:43:06.995Z,28.11
2022-08-25T18:45:43.554Z,28.10
2022-08-25T18:48:11.570Z,28.07
2022-08-25T18:50:40.939Z,27.95
2022-08-25T18:53:09.998Z,27.95
2022-08-25T18:55:39.809Z,27.78
2022-08-25T18:58:07.564Z,27.85
2022-08-25T19:00:40.791Z,27.85
2022-08-25T19:03:09.805Z,27.76
2022-08-25T19:05:39.150Z,27.60
2022-08-25T19:08:11.298Z,27.67
2022-08-25T19:10:39.343Z,27.67
2022-08-25T19:13:08.128Z,27.67
2022-08-25T19:15:37.534Z,27.56
2022-08-25T19:18:09.890Z,27.50
2022-08-25T19:20:38.931Z,27.50
2022-08-25T19:23:07.694Z,27.50
2022-08-25T19:25:35.833Z,27.43
2022-08-25T19:28:12.138Z,27.36
2022-08-25T19:30:39.925Z,27.33
2022-08-25T19:33:42.621Z,27.24
2022-08-25T19:36:08.750Z,27.17
2022-08-25T19:38:37.569Z,27.16
2022-08-25T19:41:09.056Z,27.07
2022-08-25T19:43:56.781Z,27.09
2022-08-25T19:46:33.320Z,27.00
2022-08-25T19:49:17.061Z,26.87
2022-08-25T19:51:51.156Z,26.72
2022-08-25T19:54:26.485Z,26.80
2022-08-25T19:56:55.861Z,26.86
2022-08-25T19:59:36.568Z,26.72
2022-08-25T20:02:19.718Z,26.69
2022-08-25T20:04:50.251Z,26.67
2022-08-25T20:07:22.430Z,26.63
2022-08-25T20:09:53.018Z,26.53
2022-08-25T20:12:20.708Z,26.52
2022-08-25T20:14:49.712Z,26.43
2022-08-25T20:17:24.780Z,26.40
2022-08-25T20:19:55.723Z,26.36
2022-08-25T20:22:26.657Z,26.34
2022-08-25T20:24:59.240Z,26.36
2022-08-25T20:27:35.028Z,26.39
2022-08-25T20:30:09.407Z,26.39
2022-08-25T20:32:37.321Z,26.44
2022-08-25T20:35:08.940Z,26.37
2022-08-25T20:37:37.336Z,26.31
2022-08-25T20:40:05.522Z,26.37
2022-08-25T20:42:33.038Z,26.25
2022-08-25T20:45:01.169Z,26.40
2022-08-25T20:47:28.705Z,26.29
2022-08-25T20:49:58.045Z,26.28
2022-08-25T20:52:26.085Z,26.18
2022-08-25T20:54:53.468Z,26.17
2022-08-25T20:57:25.659Z,26.16
2022-08-25T20:59:55.181Z,26.01
2022-08-25T21:02:24.068Z,26.06
2022-08-25T21:04:53.094Z,26.04
2022-08-25T21:07:23.887Z,25.98
2022-08-25T21:09:51.689Z,25.87
2022-08-25T21:12:19.419Z,25.78
2022-08-25T21:14:47.028Z,25.72
2022-08-25T21:17:15.471Z,25.64
2022-08-25T21:22:19.623Z,25.71
2022-08-25T21:24:47.805Z,25.75
2022-08-25T21:27:17.700Z,25.65
2022-08-25T21:29:54.606Z,25.64
2022-08-25T21:32:25.739Z,25.64
2022-08-25T21:34:54.426Z,25.59
2022-08-25T21:37:22.330Z,25.66
2022-08-25T21:39:50.689Z,25.57
2022-08-25T21:42:19.946Z,25.69
2022-08-25T21:44:47.503Z,25.71
2022-08-25T21:47:15.314Z,25.72
2022-08-25T21:49:49.574Z,25.64
2022-08-25T21:52:17.859Z,25.69
2022-08-25T21:54:48.723Z,25.66
2022-08-25T21:57:16.470Z,25.46
2022-08-25T21:59:45.146Z,25.58
2022-08-25T22:02:13.578Z,25.60
2022-08-25T22:04:41.606Z,25.53
2022-08-25T22:07:10.701Z,25.53
2022-08-25T22:09:38.373Z,25.57
2022-08-25T22:12:06.500Z,25.45
2022-08-25T22:14:34.838Z,25.51
2022-08-25T22:17:06.033Z,25.43
2022-08-25T22:19:36.783Z,25.40
2022-08-25T22:22:04.514Z,25.47
2022-08-25T22:24:31.905Z,25.38
2022-08-25T22:26:59.587Z,25.43
2022-08-25T22:29:28.176Z,25.28
2022-08-25T22:32:00.933Z,25.27
2022-08-25T22:34:34.003Z,25.22
2022-08-25T22:37:02.401Z,25.22
2022-08-25T22:39:32.171Z,25.21
2022-08-25T22:42:02.541Z,25.12
2022-08-25T22:44:30.278Z,25.08
2022-08-25T22:46:57.888Z,25.06
2022-08-25T22:49:28.622Z,25.18
2022-08-25T22:51:56.209Z,25.00
2022-08-25T22:54:23.976Z,24.99
2022-08-25T22:56:53.241Z,24.88
2022-08-25T22:59:22.470Z,24.93
2022-08-25T23:01:50.704Z,24.88
2022-08-25T23:04:19.131Z,24.83
2022-08-25T23:06:47.063Z,24.82
2022-08-25T23:09:14.855Z,24.77
2022-08-25T23:11:43.136Z,24.67
2022-08-25T23:14:10.456Z,24.70
2022-08-25T23:16:39.643Z,24.62
2022-08-25T23:19:13.930Z,24.63
2022-08-25T23:21:42.876Z,24.53
2022-08-25T23:24:11.335Z,24.52
2022-08-25T23:26:41.971Z,24.54
2022-08-25T23:29:18.148Z,24.56
2022-08-25T23:31:47.792Z,24.55
2022-08-25T23:34:16.554Z,24.52
2022-08-25T23:36:44.907Z,24.46
2022-08-25T23:39:12.176Z,24.45
2022-08-25T23:41:41.827Z,24.44
2022-08-25T23:44:11.631Z,24.44
2022-08-25T23:46:39.612Z,24.41
2022-08-25T23:49:08.388Z,24.46
2022-08-25T23:51:38.081Z,24.32
2022-08-25T23:54:09.237Z,24.37
2022-08-25T23:56:42.471Z,24.52
2022-08-25T23:59:14.427Z,24.42
